Aeroporto :
LOGIN :

Iscrizione | Disclaimer

   EN    FR    IT 

 










Sommario :    VFR   VFR Marginale   IFR   IFR Intensivo   IFR Molto Intensivo
Visibilità : 
Base nubi : 
>= 8 km
>= 3000ft
5 / 8 km
1000 / 3000 ft
1500m / 5 km
500 / 1000 ft
800 / 1500m
200 / 500 ft
< 800m
< 200 ft
Simboli :   Temporali  Nebbia  Neve Forte  Precipitazioni Forti  Vento > 20 kt
SIGMETs :   Varie  Temporali  Ghiacco  Turbolenza  Onda orograficha  Ceneri Vulcaniche






- Altitudine del aeroporto : 94 ft
- Codice IATA : MUH


HEMM - Mersa Matruh

ULTIMO METAR :
  • 040900Z 14021KT 1000 R15/1000 SA NSC 26/01 Q1008 NOSIG

METARs OBSOLETI :
  • 040800Z 14020KT 3000 SA NSC 25/03 Q1009 NOSIG
  • 040700Z 13018KT 5000 SA NSC 22/04 Q1009 TEMPO3000

TAF TAF HEMM
Valido dal 04 a 06 ore il 05 a 12 ore UTC


040500Z 0406/0512 13012G25KT 3000 SA NSC



MetMap, La meteo Aeronautica in un colpo d'occhio ! - Copyright ORBIFLY Dicembre 2007 - Disclaimer

ORBIFLY MET'MAP TEAM :

Programmazione e sviluppo : Alexandra Zaïnal
Concezione : Baudouin d'Aumeries
Aiuto per la programmazione : Marc-Olivier Méhu
Supporto tecnico e logistico : Manuel Goepfert
Aiuto per la traduzione : Arnaldo La Scala

Contatto : metmap@orbifly.com




FONTI E CREDITI :

   NOAA